sensor_id;sensor_type;location;lat;lon;timestamp;P1;durP1;ratioP1;P2;durP2;ratioP2
19113;SDS011;9689;51.052;13.772;2024-01-15T00:00:06;12.30;;;5.78;;
19113;SDS011;9689;51.052;13.772;2024-01-15T00:05:12;17.45;;;6.05;;
19113;SDS011;9689;51.052;13.772;2024-01-15T00:10:13;15.50;;;6.32;;
19113;SDS011;9689;51.052;13.772;2024-01-15T00:15:14;14.73;;;6.55;;
19113;SDS011;9689;51.052;13.772;2024-01-15T00:20:16;13.95;;;5.90;;
19113;SDS011;9689;51.052;13.772;2024-01-15T00:25:17;21.77;;;6.88;;
19113;SDS011;9689;51.052;13.772;2024-01-15T00:30:18;14.15;;;6.38;;
19113;SDS011;9689;51.052;13.772;2024-01-15T00:35:20;15.05;;;6.60;;
19113;SDS011;9689;51.052;13.772;2024-01-15T00:40:20;17.35;;;6.45;;
19113;SDS011;9689;51.052;13.772;2024-01-15T00:45:21;14.25;;;6.47;;
19113;SDS011;9689;51.052;13.772;2024-01-15T00:50:23;17.85;;;7.22;;
19113;SDS011;9689;51.052;13.772;2024-01-15T00:55:24;17.63;;;6.95;;
19113;SDS011;9689;51.052;13.772;2024-01-15T01:00:25;18.55;;;7.18;;
19113;SDS011;9689;51.052;13.772;2024-01-15T01:05:27;16.15;;;7.18;;
19113;SDS011;9689;51.052;13.772;2024-01-15T01:10:28;14.80;;;6.60;;
19113;SDS011;9689;51.052;13.772;2024-01-15T01:15:29;16.33;;;7.03;;
19113;SDS011;9689;51.052;13.772;2024-01-15T01:20:31;17.67;;;7.28;;
19113;SDS011;9689;51.052;13.772;2024-01-15T01:25:32;17.25;;;6.72;;
19113;SDS011;9689;51.052;13.772;2024-01-15T01:30:33;15.10;;;6.88;;
19113;SDS011;9689;51.052;13.772;2024-01-15T01:35:35;16.73;;;7.03;;
19113;SDS011;9689;51.052;13.772;2024-01-15T01:40:36;20.95;;;8.95;;
19113;SDS011;9689;51.052;13.772;2024-01-15T01:45:37;18.05;;;7.88;;
19113;SDS011;9689;51.052;13.772;2024-01-15T01:50:40;18.00;;;6.93;;
19113;SDS011;9689;51.052;13.772;2024-01-15T01:55:41;16.40;;;7.25;;
19113;SDS011;9689;51.052;13.772;2024-01-15T02:00:41;19.48;;;8.65;;
19113;SDS011;9689;51.052;13.772;2024-01-15T02:05:45;18.10;;;7.63;;
19113;SDS011;9689;51.052;13.772;2024-01-15T02:10:49;15.63;;;6.93;;
19113;SDS011;9689;51.052;13.772;2024-01-15T02:15:49;16.92;;;6.82;;
19113;SDS011;9689;51.052;13.772;2024-01-15T02:20:52;18.67;;;8.15;;
19113;SDS011;9689;51.052;13.772;2024-01-15T02:25:53;18.40;;;7.78;;
19113;SDS011;9689;51.052;13.772;2024-01-15T02:30:54;18.75;;;7.68;;
19113;SDS011;9689;51.052;13.772;2024-01-15T02:35:55;18.23;;;7.90;;
19113;SDS011;9689;51.052;13.772;2024-01-15T02:40:58;20.60;;;8.30;;
19113;SDS011;9689;51.052;13.772;2024-01-15T02:45:59;22.13;;;8.05;;
19113;SDS011;9689;51.052;13.772;2024-01-15T02:50:59;18.25;;;7.15;;
19113;SDS011;9689;51.052;13.772;2024-01-15T02:56:01;21.83;;;7.88;;
19113;SDS011;9689;51.052;13.772;2024-01-15T03:01:02;21.15;;;8.15;;
19113;SDS011;9689;51.052;13.772;2024-01-15T03:06:04;21.77;;;8.13;;
19113;SDS011;9689;51.052;13.772;2024-01-15T03:11:06;20.52;;;8.38;;
19113;SDS011;9689;51.052;13.772;2024-01-15T03:16:07;19.08;;;7.88;;
19113;SDS011;9689;51.052;13.772;2024-01-15T03:21:08;28.00;;;9.27;;
19113;SDS011;9689;51.052;13.772;2024-01-15T03:26:10;20.02;;;6.97;;
19113;SDS011;9689;51.052;13.772;2024-01-15T03:31:11;20.05;;;8.25;;
19113;SDS011;9689;51.052;13.772;2024-01-15T03:36:12;18.60;;;8.30;;
19113;SDS011;9689;51.052;13.772;2024-01-15T03:41:14;21.67;;;8.65;;
19113;SDS011;9689;51.052;13.772;2024-01-15T03:46:14;24.80;;;9.63;;
19113;SDS011;9689;51.052;13.772;2024-01-15T03:51:16;22.52;;;8.90;;
19113;SDS011;9689;51.052;13.772;2024-01-15T03:56:19;26.55;;;9.98;;
19113;SDS011;9689;51.052;13.772;2024-01-15T04:01:20;26.55;;;9.95;;
19113;SDS011;9689;51.052;13.772;2024-01-15T04:06:20;25.23;;;9.48;;
19113;SDS011;9689;51.052;13.772;2024-01-15T04:11:23;29.25;;;10.48;;
19113;SDS011;9689;51.052;13.772;2024-01-15T04:16:23;22.52;;;9.45;;
19113;SDS011;9689;51.052;13.772;2024-01-15T04:21:24;25.50;;;10.35;;
19113;SDS011;9689;51.052;13.772;2024-01-15T04:26:26;19.90;;;8.88;;
19113;SDS011;9689;51.052;13.772;2024-01-15T04:31:27;24.98;;;9.13;;
19113;SDS011;9689;51.052;13.772;2024-01-15T04:36:28;23.63;;;9.43;;
19113;SDS011;9689;51.052;13.772;2024-01-15T04:41:30;18.73;;;7.45;;
19113;SDS011;9689;51.052;13.772;2024-01-15T04:46:31;21.73;;;8.85;;
19113;SDS011;9689;51.052;13.772;2024-01-15T04:51:32;19.65;;;7.95;;
19113;SDS011;9689;51.052;13.772;2024-01-15T04:56:34;27.42;;;9.75;;
19113;SDS011;9689;51.052;13.772;2024-01-15T05:01:35;23.40;;;10.15;;
19113;SDS011;9689;51.052;13.772;2024-01-15T05:06:35;19.63;;;8.27;;
19113;SDS011;9689;51.052;13.772;2024-01-15T05:11:37;27.10;;;10.00;;
19113;SDS011;9689;51.052;13.772;2024-01-15T05:16:38;24.52;;;9.00;;
19113;SDS011;9689;51.052;13.772;2024-01-15T05:21:39;21.52;;;8.82;;
19113;SDS011;9689;51.052;13.772;2024-01-15T05:26:41;22.45;;;9.20;;
19113;SDS011;9689;51.052;13.772;2024-01-15T05:31:42;27.58;;;9.63;;
19113;SDS011;9689;51.052;13.772;2024-01-15T05:36:43;21.77;;;8.00;;
19113;SDS011;9689;51.052;13.772;2024-01-15T05:41:48;26.65;;;9.32;;
19113;SDS011;9689;51.052;13.772;2024-01-15T05:46:49;21.88;;;8.48;;
19113;SDS011;9689;51.052;13.772;2024-01-15T05:51:50;20.80;;;7.75;;
19113;SDS011;9689;51.052;13.772;2024-01-15T05:56:52;25.90;;;8.43;;
19113;SDS011;9689;51.052;13.772;2024-01-15T06:01:53;23.00;;;8.88;;
19113;SDS011;9689;51.052;13.772;2024-01-15T06:06:53;24.45;;;9.18;;
19113;SDS011;9689;51.052;13.772;2024-01-15T06:11:56;22.58;;;8.88;;
19113;SDS011;9689;51.052;13.772;2024-01-15T06:16:56;22.33;;;8.82;;
19113;SDS011;9689;51.052;13.772;2024-01-15T06:21:57;23.60;;;8.15;;
19113;SDS011;9689;51.052;13.772;2024-01-15T06:26:59;23.27;;;8.82;;
19113;SDS011;9689;51.052;13.772;2024-01-15T06:32:00;21.17;;;7.47;;
19113;SDS011;9689;51.052;13.772;2024-01-15T06:37:01;24.98;;;7.75;;
19113;SDS011;9689;51.052;13.772;2024-01-15T06:42:03;18.30;;;7.55;;
19113;SDS011;9689;51.052;13.772;2024-01-15T06:47:05;19.35;;;7.30;;
19113;SDS011;9689;51.052;13.772;2024-01-15T06:52:06;16.23;;;6.85;;
19113;SDS011;9689;51.052;13.772;2024-01-15T06:57:08;18.13;;;7.30;;
19113;SDS011;9689;51.052;13.772;2024-01-15T07:02:08;17.27;;;7.32;;
19113;SDS011;9689;51.052;13.772;2024-01-15T07:07:10;18.65;;;7.22;;
19113;SDS011;9689;51.052;13.772;2024-01-15T07:12:12;25.17;;;7.85;;
19113;SDS011;9689;51.052;13.772;2024-01-15T07:17:12;18.88;;;6.20;;
19113;SDS011;9689;51.052;13.772;2024-01-15T07:22:13;14.07;;;6.25;;
19113;SDS011;9689;51.052;13.772;2024-01-15T07:27:19;17.15;;;6.28;;
19113;SDS011;9689;51.052;13.772;2024-01-15T07:32:20;17.48;;;6.38;;
19113;SDS011;9689;51.052;13.772;2024-01-15T07:37:21;18.33;;;7.20;;
19113;SDS011;9689;51.052;13.772;2024-01-15T07:42:24;19.10;;;6.07;;
19113;SDS011;9689;51.052;13.772;2024-01-15T07:47:25;13.82;;;6.10;;
19113;SDS011;9689;51.052;13.772;2024-01-15T07:52:26;17.13;;;7.63;;
19113;SDS011;9689;51.052;13.772;2024-01-15T07:57:28;17.40;;;6.72;;
19113;SDS011;9689;51.052;13.772;2024-01-15T08:02:29;20.45;;;6.90;;
19113;SDS011;9689;51.052;13.772;2024-01-15T08:07:35;14.73;;;6.90;;
19113;SDS011;9689;51.052;13.772;2024-01-15T08:12:37;15.82;;;6.45;;
19113;SDS011;9689;51.052;13.772;2024-01-15T08:17:38;18.23;;;6.82;;
19113;SDS011;9689;51.052;13.772;2024-01-15T08:22:39;23.95;;;7.65;;
19113;SDS011;9689;51.052;13.772;2024-01-15T08:27:41;18.40;;;6.75;;
19113;SDS011;9689;51.052;13.772;2024-01-15T08:32:42;16.80;;;7.93;;
19113;SDS011;9689;51.052;13.772;2024-01-15T08:37:43;18.77;;;7.30;;
19113;SDS011;9689;51.052;13.772;2024-01-15T08:42:45;24.90;;;6.35;;
19113;SDS011;9689;51.052;13.772;2024-01-15T08:47:46;15.95;;;5.72;;
19113;SDS011;9689;51.052;13.772;2024-01-15T08:52:46;13.68;;;5.40;;
19113;SDS011;9689;51.052;13.772;2024-01-15T08:57:48;16.70;;;5.55;;
19113;SDS011;9689;51.052;13.772;2024-01-15T09:02:50;21.52;;;6.65;;
19113;SDS011;9689;51.052;13.772;2024-01-15T09:07:51;14.27;;;5.78;;
19113;SDS011;9689;51.052;13.772;2024-01-15T09:12:53;17.25;;;6.15;;
19113;SDS011;9689;51.052;13.772;2024-01-15T09:17:54;17.40;;;5.25;;
19113;SDS011;9689;51.052;13.772;2024-01-15T09:22:56;13.43;;;5.28;;
19113;SDS011;9689;51.052;13.772;2024-01-15T09:27:58;13.27;;;5.28;;
19113;SDS011;9689;51.052;13.772;2024-01-15T09:32:59;11.25;;;4.97;;
19113;SDS011;9689;51.052;13.772;2024-01-15T09:38:00;12.13;;;4.85;;
19113;SDS011;9689;51.052;13.772;2024-01-15T09:43:02;18.60;;;5.13;;
19113;SDS011;9689;51.052;13.772;2024-01-15T09:48:04;11.30;;;5.25;;
19113;SDS011;9689;51.052;13.772;2024-01-15T09:53:06;19.95;;;4.82;;
19113;SDS011;9689;51.052;13.772;2024-01-15T09:58:08;14.48;;;4.75;;
19113;SDS011;9689;51.052;13.772;2024-01-15T10:03:10;13.60;;;4.38;;
19113;SDS011;9689;51.052;13.772;2024-01-15T10:08:11;19.48;;;5.53;;
19113;SDS011;9689;51.052;13.772;2024-01-15T10:13:13;18.02;;;5.15;;
19113;SDS011;9689;51.052;13.772;2024-01-15T10:18:15;13.45;;;4.70;;
19113;SDS011;9689;51.052;13.772;2024-01-15T10:23:16;11.93;;;5.05;;
19113;SDS011;9689;51.052;13.772;2024-01-15T10:28:18;12.93;;;4.43;;
19113;SDS011;9689;51.052;13.772;2024-01-15T10:33:21;11.05;;;4.78;;
19113;SDS011;9689;51.052;13.772;2024-01-15T10:38:25;10.05;;;3.95;;
19113;SDS011;9689;51.052;13.772;2024-01-15T10:43:27;18.77;;;4.18;;
19113;SDS011;9689;51.052;13.772;2024-01-15T10:48:28;10.20;;;4.25;;
19113;SDS011;9689;51.052;13.772;2024-01-15T10:53:30;13.05;;;5.00;;
19113;SDS011;9689;51.052;13.772;2024-01-15T10:58:34;12.50;;;4.50;;
19113;SDS011;9689;51.052;13.772;2024-01-15T11:03:35;12.00;;;4.70;;
19113;SDS011;9689;51.052;13.772;2024-01-15T11:08:36;12.25;;;4.15;;
19113;SDS011;9689;51.052;13.772;2024-01-15T11:13:41;13.90;;;4.43;;
19113;SDS011;9689;51.052;13.772;2024-01-15T11:19:01;10.02;;;4.20;;
19113;SDS011;9689;51.052;13.772;2024-01-15T11:24:05;11.52;;;4.47;;
19113;SDS011;9689;51.052;13.772;2024-01-15T11:34:50;12.75;;;5.03;;
19113;SDS011;9689;51.052;13.772;2024-01-15T11:39:52;21.67;;;5.80;;
19113;SDS011;9689;51.052;13.772;2024-01-15T11:44:55;13.98;;;5.15;;
19113;SDS011;9689;51.052;13.772;2024-01-15T11:49:59;12.02;;;4.70;;
19113;SDS011;9689;51.052;13.772;2024-01-15T11:55:07;10.77;;;4.43;;
19113;SDS011;9689;51.052;13.772;2024-01-15T12:00:14;10.02;;;4.65;;
19113;SDS011;9689;51.052;13.772;2024-01-15T12:05:16;11.40;;;4.28;;
19113;SDS011;9689;51.052;13.772;2024-01-15T12:10:19;11.68;;;4.80;;
19113;SDS011;9689;51.052;13.772;2024-01-15T12:15:22;11.23;;;3.95;;
19113;SDS011;9689;51.052;13.772;2024-01-15T12:20:24;10.55;;;4.03;;
19113;SDS011;9689;51.052;13.772;2024-01-15T12:25:25;15.43;;;5.07;;
19113;SDS011;9689;51.052;13.772;2024-01-15T12:30:28;14.77;;;5.30;;
19113;SDS011;9689;51.052;13.772;2024-01-15T12:35:31;12.27;;;4.88;;
19113;SDS011;9689;51.052;13.772;2024-01-15T12:40:33;12.32;;;4.95;;
19113;SDS011;9689;51.052;13.772;2024-01-15T12:45:37;11.10;;;4.78;;
19113;SDS011;9689;51.052;13.772;2024-01-15T12:50:38;11.55;;;4.70;;
19113;SDS011;9689;51.052;13.772;2024-01-15T12:55:40;12.60;;;4.78;;
19113;SDS011;9689;51.052;13.772;2024-01-15T13:00:42;12.18;;;4.97;;
19113;SDS011;9689;51.052;13.772;2024-01-15T13:05:43;11.25;;;4.65;;
19113;SDS011;9689;51.052;13.772;2024-01-15T13:10:44;14.52;;;5.28;;
19113;SDS011;9689;51.052;13.772;2024-01-15T13:15:46;12.07;;;4.47;;
19113;SDS011;9689;51.052;13.772;2024-01-15T13:20:47;16.25;;;6.18;;
19113;SDS011;9689;51.052;13.772;2024-01-15T13:25:49;13.02;;;5.15;;
19113;SDS011;9689;51.052;13.772;2024-01-15T13:30:51;13.13;;;4.78;;
19113;SDS011;9689;51.052;13.772;2024-01-15T13:35:52;11.00;;;4.60;;
19113;SDS011;9689;51.052;13.772;2024-01-15T13:40:53;10.07;;;4.55;;
19113;SDS011;9689;51.052;13.772;2024-01-15T13:45:56;14.25;;;5.20;;
19113;SDS011;9689;51.052;13.772;2024-01-15T13:50:56;11.27;;;5.07;;
19113;SDS011;9689;51.052;13.772;2024-01-15T13:55:58;14.32;;;5.18;;
19113;SDS011;9689;51.052;13.772;2024-01-15T14:01:00;20.27;;;6.13;;
19113;SDS011;9689;51.052;13.772;2024-01-15T14:06:02;12.68;;;6.30;;
19113;SDS011;9689;51.052;13.772;2024-01-15T14:11:08;20.00;;;6.47;;
19113;SDS011;9689;51.052;13.772;2024-01-15T14:16:10;12.48;;;5.03;;
19113;SDS011;9689;51.052;13.772;2024-01-15T14:21:11;14.27;;;5.75;;
19113;SDS011;9689;51.052;13.772;2024-01-15T14:26:12;14.15;;;5.78;;
19113;SDS011;9689;51.052;13.772;2024-01-15T14:31:16;12.50;;;5.38;;
19113;SDS011;9689;51.052;13.772;2024-01-15T14:36:17;13.88;;;5.30;;
19113;SDS011;9689;51.052;13.772;2024-01-15T14:41:17;15.05;;;5.55;;
19113;SDS011;9689;51.052;13.772;2024-01-15T14:46:19;16.75;;;6.22;;
19113;SDS011;9689;51.052;13.772;2024-01-15T14:51:20;12.05;;;6.20;;
19113;SDS011;9689;51.052;13.772;2024-01-15T14:56:21;15.75;;;6.28;;
19113;SDS011;9689;51.052;13.772;2024-01-15T15:01:23;13.80;;;6.03;;
19113;SDS011;9689;51.052;13.772;2024-01-15T15:06:24;17.55;;;6.20;;
19113;SDS011;9689;51.052;13.772;2024-01-15T15:11:27;15.65;;;6.38;;
19113;SDS011;9689;51.052;13.772;2024-01-15T15:16:30;16.40;;;6.22;;
19113;SDS011;9689;51.052;13.772;2024-01-15T15:21:31;19.17;;;5.70;;
19113;SDS011;9689;51.052;13.772;2024-01-15T15:26:31;21.02;;;6.25;;
19113;SDS011;9689;51.052;13.772;2024-01-15T15:31:34;19.67;;;5.97;;
19113;SDS011;9689;51.052;13.772;2024-01-15T15:36:34;18.55;;;6.25;;
19113;SDS011;9689;51.052;13.772;2024-01-15T15:41:35;13.07;;;6.22;;
19113;SDS011;9689;51.052;13.772;2024-01-15T15:46:38;17.02;;;5.75;;
19113;SDS011;9689;51.052;13.772;2024-01-15T15:51:39;15.35;;;6.30;;
19113;SDS011;9689;51.052;13.772;2024-01-15T15:56:41;16.70;;;6.47;;
19113;SDS011;9689;51.052;13.772;2024-01-15T16:01:48;12.88;;;5.93;;
19113;SDS011;9689;51.052;13.772;2024-01-15T16:06:49;18.83;;;6.72;;
19113;SDS011;9689;51.052;13.772;2024-01-15T16:11:50;15.55;;;6.05;;
19113;SDS011;9689;51.052;13.772;2024-01-15T16:16:52;15.05;;;6.65;;
19113;SDS011;9689;51.052;13.772;2024-01-15T16:22:16;15.35;;;5.53;;
19113;SDS011;9689;51.052;13.772;2024-01-15T16:27:37;14.07;;;5.82;;
19113;SDS011;9689;51.052;13.772;2024-01-15T16:32:41;17.63;;;6.40;;
19113;SDS011;9689;51.052;13.772;2024-01-15T16:37:41;15.93;;;6.50;;
19113;SDS011;9689;51.052;13.772;2024-01-15T16:42:42;15.45;;;6.80;;
19113;SDS011;9689;51.052;13.772;2024-01-15T16:47:46;12.02;;;6.05;;
19113;SDS011;9689;51.052;13.772;2024-01-15T16:52:47;13.80;;;6.78;;
19113;SDS011;9689;51.052;13.772;2024-01-15T16:57:47;17.73;;;7.38;;
19113;SDS011;9689;51.052;13.772;2024-01-15T17:02:50;17.75;;;7.32;;
19113;SDS011;9689;51.052;13.772;2024-01-15T17:07:50;18.30;;;7.75;;
19113;SDS011;9689;51.052;13.772;2024-01-15T17:12:51;15.85;;;6.95;;
19113;SDS011;9689;51.052;13.772;2024-01-15T17:17:53;17.65;;;6.82;;
19113;SDS011;9689;51.052;13.772;2024-01-15T17:22:55;13.25;;;7.15;;
19113;SDS011;9689;51.052;13.772;2024-01-15T17:27:56;20.33;;;7.18;;
19113;SDS011;9689;51.052;13.772;2024-01-15T17:32:58;13.70;;;6.18;;
19113;SDS011;9689;51.052;13.772;2024-01-15T17:37:59;16.17;;;6.35;;
19113;SDS011;9689;51.052;13.772;2024-01-15T17:43:00;14.07;;;5.63;;
19113;SDS011;9689;51.052;13.772;2024-01-15T17:48:02;13.65;;;6.30;;
19113;SDS011;9689;51.052;13.772;2024-01-15T17:53:03;19.05;;;6.20;;
19113;SDS011;9689;51.052;13.772;2024-01-15T17:58:04;12.68;;;5.18;;
19113;SDS011;9689;51.052;13.772;2024-01-15T18:03:07;11.68;;;5.60;;
19113;SDS011;9689;51.052;13.772;2024-01-15T18:08:08;11.20;;;5.80;;
19113;SDS011;9689;51.052;13.772;2024-01-15T18:13:09;15.13;;;6.35;;
19113;SDS011;9689;51.052;13.772;2024-01-15T18:18:11;13.57;;;6.20;;
19113;SDS011;9689;51.052;13.772;2024-01-15T18:23:12;17.33;;;6.95;;
19113;SDS011;9689;51.052;13.772;2024-01-15T18:28:13;14.25;;;6.88;;
19113;SDS011;9689;51.052;13.772;2024-01-15T18:33:15;12.85;;;6.15;;
19113;SDS011;9689;51.052;13.772;2024-01-15T18:38:16;12.93;;;6.28;;
19113;SDS011;9689;51.052;13.772;2024-01-15T18:43:17;14.30;;;6.95;;
19113;SDS011;9689;51.052;13.772;2024-01-15T18:48:19;15.65;;;6.47;;
19113;SDS011;9689;51.052;13.772;2024-01-15T18:53:20;16.08;;;6.25;;
19113;SDS011;9689;51.052;13.772;2024-01-15T18:58:21;18.33;;;7.65;;
19113;SDS011;9689;51.052;13.772;2024-01-15T19:03:24;15.73;;;7.30;;
19113;SDS011;9689;51.052;13.772;2024-01-15T19:08:25;14.68;;;7.38;;
19113;SDS011;9689;51.052;13.772;2024-01-15T19:13:26;15.23;;;7.10;;
19113;SDS011;9689;51.052;13.772;2024-01-15T19:18:28;13.90;;;7.22;;
19113;SDS011;9689;51.052;13.772;2024-01-15T19:23:29;14.43;;;6.95;;
19113;SDS011;9689;51.052;13.772;2024-01-15T19:28:30;14.75;;;6.88;;
19113;SDS011;9689;51.052;13.772;2024-01-15T19:33:32;15.18;;;6.57;;
19113;SDS011;9689;51.052;13.772;2024-01-15T19:38:37;16.17;;;7.15;;
19113;SDS011;9689;51.052;13.772;2024-01-15T19:43:40;13.45;;;6.40;;
19113;SDS011;9689;51.052;13.772;2024-01-15T19:48:42;16.70;;;7.15;;
19113;SDS011;9689;51.052;13.772;2024-01-15T19:53:45;15.88;;;7.00;;
19113;SDS011;9689;51.052;13.772;2024-01-15T19:58:46;12.68;;;6.20;;
19113;SDS011;9689;51.052;13.772;2024-01-15T20:03:48;13.63;;;5.88;;
19113;SDS011;9689;51.052;13.772;2024-01-15T20:08:50;16.00;;;6.18;;
19113;SDS011;9689;51.052;13.772;2024-01-15T20:13:51;9.75;;;4.85;;
19113;SDS011;9689;51.052;13.772;2024-01-15T20:18:53;11.93;;;5.15;;
19113;SDS011;9689;51.052;13.772;2024-01-15T20:23:54;12.70;;;4.47;;
19113;SDS011;9689;51.052;13.772;2024-01-15T20:29:02;8.77;;;4.43;;
19113;SDS011;9689;51.052;13.772;2024-01-15T20:34:05;6.75;;;3.75;;
19113;SDS011;9689;51.052;13.772;2024-01-15T20:39:06;9.50;;;4.30;;
19113;SDS011;9689;51.052;13.772;2024-01-15T20:44:08;7.07;;;3.38;;
19113;SDS011;9689;51.052;13.772;2024-01-15T20:49:10;8.35;;;3.97;;
19113;SDS011;9689;51.052;13.772;2024-01-15T20:54:11;6.15;;;3.33;;
19113;SDS011;9689;51.052;13.772;2024-01-15T20:59:12;8.90;;;3.55;;
19113;SDS011;9689;51.052;13.772;2024-01-15T21:04:14;10.20;;;4.18;;
19113;SDS011;9689;51.052;13.772;2024-01-15T21:09:16;6.25;;;3.60;;
19113;SDS011;9689;51.052;13.772;2024-01-15T21:14:17;6.38;;;3.50;;
19113;SDS011;9689;51.052;13.772;2024-01-15T21:19:20;9.13;;;3.88;;
19113;SDS011;9689;51.052;13.772;2024-01-15T21:24:20;6.50;;;3.53;;
19113;SDS011;9689;51.052;13.772;2024-01-15T21:29:26;6.90;;;3.58;;
19113;SDS011;9689;51.052;13.772;2024-01-15T21:34:29;6.57;;;3.35;;
19113;SDS011;9689;51.052;13.772;2024-01-15T21:39:30;6.32;;;2.70;;
19113;SDS011;9689;51.052;13.772;2024-01-15T21:44:32;8.00;;;3.00;;
19113;SDS011;9689;51.052;13.772;2024-01-15T21:49:34;3.47;;;2.20;;
19113;SDS011;9689;51.052;13.772;2024-01-15T21:54:35;7.07;;;2.63;;
19113;SDS011;9689;51.052;13.772;2024-01-15T21:59:36;5.03;;;2.10;;
19113;SDS011;9689;51.052;13.772;2024-01-15T22:04:38;5.80;;;2.22;;
19113;SDS011;9689;51.052;13.772;2024-01-15T22:09:39;3.30;;;1.80;;
19113;SDS011;9689;51.052;13.772;2024-01-15T22:14:39;4.65;;;2.20;;
19113;SDS011;9689;51.052;13.772;2024-01-15T22:19:42;6.28;;;1.98;;
19113;SDS011;9689;51.052;13.772;2024-01-15T22:24:42;9.55;;;2.30;;
19113;SDS011;9689;51.052;13.772;2024-01-15T22:29:43;3.03;;;1.80;;
19113;SDS011;9689;51.052;13.772;2024-01-15T22:34:47;4.80;;;2.20;;
19113;SDS011;9689;51.052;13.772;2024-01-15T22:39:48;1.65;;;1.20;;
19113;SDS011;9689;51.052;13.772;2024-01-15T22:44:50;3.78;;;1.92;;
19113;SDS011;9689;51.052;13.772;2024-01-15T22:49:53;6.28;;;2.63;;
19113;SDS011;9689;51.052;13.772;2024-01-15T22:54:54;5.28;;;2.88;;
19113;SDS011;9689;51.052;13.772;2024-01-15T22:59:54;9.20;;;3.25;;
19113;SDS011;9689;51.052;13.772;2024-01-15T23:04:56;6.03;;;3.10;;
19113;SDS011;9689;51.052;13.772;2024-01-15T23:09:57;7.47;;;2.65;;
19113;SDS011;9689;51.052;13.772;2024-01-15T23:14:58;5.90;;;2.15;;
19113;SDS011;9689;51.052;13.772;2024-01-15T23:20:00;7.95;;;2.25;;
19113;SDS011;9689;51.052;13.772;2024-01-15T23:25:04;9.15;;;2.03;;
19113;SDS011;9689;51.052;13.772;2024-01-15T23:30:06;8.68;;;1.90;;
19113;SDS011;9689;51.052;13.772;2024-01-15T23:35:09;8.70;;;1.98;;
19113;SDS011;9689;51.052;13.772;2024-01-15T23:40:10;11.13;;;1.80;;
19113;SDS011;9689;51.052;13.772;2024-01-15T23:45:12;11.55;;;2.05;;
19113;SDS011;9689;51.052;13.772;2024-01-15T23:50:14;10.43;;;1.48;;
19113;SDS011;9689;51.052;13.772;2024-01-15T23:55:15;6.05;;;1.48;;
